createdAt,value
2019-02-06T00:02:51.626Z,12.60
2019-02-06T00:08:00.496Z,11.73
2019-02-06T00:13:09.662Z,12.17
2019-02-06T00:18:18.331Z,13.20
2019-02-06T00:23:37.037Z,11.65
2019-02-06T00:28:47.213Z,10.10
2019-02-06T00:33:59.756Z,10.33
2019-02-06T00:39:16.630Z,8.40
2019-02-06T00:44:31.973Z,8.30
2019-02-06T00:49:44.642Z,8.17
2019-02-06T00:54:56.292Z,9.43
2019-02-06T01:00:06.212Z,8.27
2019-02-06T01:05:18.698Z,9.45
2019-02-06T01:10:33.251Z,8.30
2019-02-06T01:15:44.434Z,9.33
2019-02-06T01:20:52.389Z,9.33
2019-02-06T01:26:04.540Z,10.23
2019-02-06T01:31:19.932Z,11.87
2019-02-06T01:36:33.448Z,9.00
2019-02-06T01:41:47.188Z,9.27
2019-02-06T01:46:59.332Z,9.97
2019-02-06T01:52:13.814Z,10.60
2019-02-06T01:57:23.792Z,9.00
2019-02-06T02:02:33.073Z,9.00
2019-02-06T02:07:45.832Z,9.33
2019-02-06T02:12:59.458Z,9.00
2019-02-06T02:18:07.373Z,8.90
2019-02-06T02:23:17.241Z,11.70
2019-02-06T02:28:28.486Z,11.37
2019-02-06T02:33:38.536Z,10.13
2019-02-06T02:38:49.466Z,11.27
2019-02-06T02:44:02.450Z,11.87
2019-02-06T02:49:12.459Z,10.10
2019-02-06T02:54:26.863Z,12.33
2019-02-06T02:59:38.910Z,11.47
2019-02-06T03:04:54.952Z,11.97
2019-02-06T03:10:02.764Z,12.40
2019-02-06T03:15:23.627Z,12.07
2019-02-06T03:20:36.299Z,12.87
2019-02-06T03:25:48.949Z,13.13
2019-02-06T03:31:00.782Z,11.77
2019-02-06T03:36:13.038Z,10.98
2019-02-06T03:41:19.864Z,11.68
2019-02-06T03:46:33.607Z,12.47
2019-02-06T03:51:43.033Z,10.43
2019-02-06T03:56:57.193Z,11.90
2019-02-06T04:02:08.601Z,9.67
2019-02-06T04:07:15.200Z,9.73
2019-02-06T04:12:30.166Z,11.65
2019-02-06T04:17:44.817Z,9.60
2019-02-06T04:22:59.441Z,10.63
2019-02-06T04:28:11.690Z,9.70
2019-02-06T04:33:26.222Z,13.33
2019-02-06T04:38:40.967Z,10.73
2019-02-06T04:43:50.995Z,9.37
2019-02-06T04:49:00.447Z,10.13
2019-02-06T04:54:11.814Z,10.50
2019-02-06T04:59:23.663Z,10.13
2019-02-06T05:04:42.606Z,12.00
2019-02-06T05:09:54.427Z,10.47
2019-02-06T05:15:05.447Z,11.73
2019-02-06T05:20:36.450Z,11.23
2019-02-06T05:25:47.336Z,10.30
2019-02-06T05:30:59.185Z,11.63
2019-02-06T05:36:08.399Z,11.47
2019-02-06T05:41:17.384Z,10.70
2019-02-06T05:46:27.351Z,12.93
2019-02-06T05:51:42.250Z,12.57
2019-02-06T05:56:54.951Z,11.03
2019-02-06T06:02:08.844Z,11.40
2019-02-06T06:07:20.870Z,14.50
2019-02-06T06:12:31.972Z,14.20
2019-02-06T06:17:44.105Z,18.80
2019-02-06T06:22:56.845Z,14.80
2019-02-06T06:28:04.921Z,15.17
2019-02-06T06:33:14.951Z,12.95
2019-02-06T06:38:24.903Z,11.80
2019-02-06T06:43:33.036Z,14.73
2019-02-06T06:48:42.270Z,12.37
2019-02-06T06:53:52.199Z,11.20
2019-02-06T06:59:03.469Z,14.47
2019-02-06T07:04:16.200Z,11.63
2019-02-06T07:09:26.920Z,11.95
2019-02-06T07:14:39.592Z,13.20
2019-02-06T07:19:48.213Z,11.90
2019-02-06T07:24:59.056Z,13.03
2019-02-06T07:30:08.554Z,11.22
2019-02-06T07:35:19.301Z,12.85
2019-02-06T07:40:31.044Z,14.90
2019-02-06T07:45:43.682Z,12.00
2019-02-06T07:50:50.988Z,11.33
2019-02-06T07:56:02.109Z,12.37
2019-02-06T08:01:10.373Z,14.47
2019-02-06T08:06:23.043Z,12.20
2019-02-06T08:11:37.638Z,11.30
2019-02-06T08:16:52.676Z,13.97
2019-02-06T08:22:06.890Z,14.63
2019-02-06T08:27:21.187Z,14.45
2019-02-06T08:32:38.597Z,14.43
2019-02-06T08:37:51.323Z,12.97
2019-02-06T08:43:02.893Z,12.80
2019-02-06T08:48:08.744Z,14.70
2019-02-06T08:53:17.054Z,14.10
2019-02-06T08:58:25.305Z,16.70
2019-02-06T09:03:41.490Z,17.23
2019-02-06T09:08:59.946Z,21.43
2019-02-06T09:14:03.387Z,24.00
2019-02-06T09:19:22.587Z,20.23
2019-02-06T09:24:40.495Z,20.33
2019-02-06T09:29:58.600Z,22.77
2019-02-06T09:35:09.556Z,24.43
2019-02-06T09:40:24.396Z,24.52
2019-02-06T09:45:37.828Z,26.67
2019-02-06T09:50:50.419Z,25.60
2019-02-06T09:56:06.155Z,21.57
2019-02-06T10:01:33.478Z,24.43
2019-02-06T10:07:03.813Z,23.50
2019-02-06T10:12:19.174Z,27.63
2019-02-06T10:17:27.526Z,22.20
2019-02-06T10:22:41.963Z,22.37
2019-02-06T10:27:59.273Z,19.83
2019-02-06T10:33:13.387Z,20.07
2019-02-06T10:38:20.735Z,19.23
2019-02-06T10:43:32.219Z,18.70
2019-02-06T10:48:38.690Z,18.85
2019-02-06T10:53:45.979Z,20.30
2019-02-06T10:58:55.072Z,15.73
2019-02-06T11:04:09.636Z,18.03
2019-02-06T11:09:21.647Z,18.90
2019-02-06T11:14:38.794Z,19.37
2019-02-06T11:19:47.748Z,19.73
2019-02-06T11:24:58.570Z,22.30
2019-02-06T11:30:07.343Z,20.75
2019-02-06T11:35:18.630Z,22.62
2019-02-06T11:40:30.144Z,24.63
2019-02-06T11:45:45.457Z,22.07
2019-02-06T11:50:54.894Z,21.43
2019-02-06T11:56:07.505Z,22.13
2019-02-06T12:01:25.978Z,19.70
2019-02-06T12:06:35.149Z,22.87
2019-02-06T12:11:52.901Z,18.80
2019-02-06T12:17:04.762Z,19.50
2019-02-06T12:22:12.302Z,20.13
2019-02-06T12:27:20.966Z,20.90
2019-02-06T12:32:36.391Z,19.00
2019-02-06T12:37:48.897Z,17.43
2019-02-06T12:42:58.837Z,20.40
2019-02-06T12:48:06.530Z,20.90
2019-02-06T12:53:17.277Z,20.47
2019-02-06T12:58:26.210Z,16.87
2019-02-06T13:03:37.826Z,19.17
2019-02-06T13:08:54.885Z,18.90
2019-02-06T13:14:05.777Z,19.50
2019-02-06T13:19:15.266Z,20.10
2019-02-06T13:24:31.113Z,18.30
2019-02-06T13:29:42.701Z,18.60
2019-02-06T13:34:55.279Z,18.13
2019-02-06T13:40:07.755Z,21.30
2019-02-06T13:45:23.050Z,19.97
2019-02-06T13:50:34.025Z,23.30
2019-02-06T13:55:45.247Z,19.60
2019-02-06T14:00:53.319Z,16.23
2019-02-06T14:06:01.419Z,19.60
2019-02-06T14:11:09.461Z,19.87
2019-02-06T14:16:19.447Z,21.20
2019-02-06T14:21:25.979Z,20.30
2019-02-06T14:26:55.844Z,18.87
2019-02-06T14:32:53.257Z,19.80
2019-02-06T14:38:33.356Z,22.80
2019-02-06T14:44:40.777Z,21.97
2019-02-06T14:50:27.206Z,22.87
2019-02-06T14:56:20.966Z,24.33
2019-02-06T15:01:54.488Z,24.63
2019-02-06T15:07:45.805Z,24.20
2019-02-06T15:13:28.190Z,24.47
2019-02-06T15:19:16.997Z,22.27
2019-02-06T15:25:12.012Z,20.40
2019-02-06T15:30:55.235Z,23.10
2019-02-06T15:36:37.010Z,23.57
2019-02-06T15:42:04.939Z,23.17
2019-02-06T15:47:47.429Z,22.07
2019-02-06T15:53:25.138Z,21.67
2019-02-06T15:59:05.197Z,17.73
2019-02-06T16:04:58.052Z,22.70
2019-02-06T16:10:45.131Z,20.57
2019-02-06T16:16:24.473Z,28.77
2019-02-06T16:21:59.500Z,26.50
2019-02-06T16:27:40.805Z,24.97
2019-02-06T16:33:16.327Z,26.60
2019-02-06T16:39:02.193Z,25.90
2019-02-06T16:44:46.548Z,24.23
2019-02-06T16:50:36.804Z,28.23
2019-02-06T16:56:10.896Z,33.23
2019-02-06T17:01:48.721Z,34.27
2019-02-06T17:07:38.382Z,37.70
2019-02-06T17:13:15.436Z,34.03
2019-02-06T17:19:28.813Z,32.07
2019-02-06T17:25:15.921Z,32.00
2019-02-06T17:30:41.126Z,41.97
2019-02-06T17:36:19.517Z,43.47
2019-02-06T17:41:40.523Z,32.13
2019-02-06T17:47:13.718Z,36.30
2019-02-06T17:52:58.264Z,34.50
2019-02-06T17:58:10.945Z,31.77
2019-02-06T18:03:25.882Z,32.37
2019-02-06T18:08:35.882Z,31.00
2019-02-06T18:13:47.572Z,33.33
2019-02-06T18:19:00.071Z,33.87
2019-02-06T18:24:07.637Z,28.67
2019-02-06T18:29:23.302Z,28.17
2019-02-06T18:34:33.468Z,27.70
2019-02-06T18:39:43.318Z,29.00
2019-02-06T18:44:56.772Z,24.70
2019-02-06T18:50:06.956Z,23.57
2019-02-06T18:55:16.273Z,25.27
2019-02-06T19:00:34.310Z,23.87
2019-02-06T19:05:46.782Z,25.33
2019-02-06T19:10:56.871Z,22.07
2019-02-06T19:16:05.860Z,23.50
2019-02-06T19:21:16.587Z,21.03
2019-02-06T19:26:26.567Z,19.87
2019-02-06T19:31:40.358Z,20.83
2019-02-06T19:36:52.899Z,21.50
2019-02-06T19:42:02.471Z,23.30
2019-02-06T19:47:11.450Z,18.17
2019-02-06T19:52:24.273Z,19.77
2019-02-06T19:57:39.564Z,20.13
2019-02-06T20:02:52.423Z,23.60
2019-02-06T20:09:05.509Z,24.03
2019-02-06T20:14:17.674Z,24.30
2019-02-06T20:19:27.567Z,22.27
2019-02-06T20:24:41.862Z,24.10
2019-02-06T20:29:53.597Z,22.80
2019-02-06T20:35:05.422Z,25.83
2019-02-06T20:40:29.924Z,28.50
2019-02-06T20:45:39.832Z,27.77
2019-02-06T20:50:51.595Z,25.27
2019-02-06T20:56:06.438Z,27.53
2019-02-06T21:01:18.258Z,26.80
2019-02-06T21:06:27.731Z,27.70
2019-02-06T21:11:44.172Z,26.27
2019-02-06T21:16:54.186Z,25.63
2019-02-06T21:22:07.656Z,27.90
2019-02-06T21:27:17.540Z,28.63
2019-02-06T21:32:25.186Z,26.33
2019-02-06T21:37:37.733Z,31.37
2019-02-06T21:42:53.028Z,29.07
2019-02-06T21:48:04.778Z,26.00
2019-02-06T21:53:20.239Z,24.13
2019-02-06T21:58:32.742Z,27.93
2019-02-06T22:03:43.589Z,24.57
2019-02-06T22:08:55.273Z,26.90
2019-02-06T22:14:12.017Z,25.37
2019-02-06T22:19:23.307Z,28.00
2019-02-06T22:24:34.932Z,24.00
2019-02-06T22:29:48.357Z,22.33
2019-02-06T22:35:07.558Z,24.90
2019-02-06T22:40:36.727Z,22.60
2019-02-06T22:45:44.960Z,20.13
2019-02-06T22:50:56.803Z,22.37
2019-02-06T22:56:09.438Z,22.10
2019-02-06T23:01:36.774Z,23.90
2019-02-06T23:06:47.143Z,22.23
2019-02-06T23:12:03.357Z,24.03
2019-02-06T23:17:14.288Z,23.10
2019-02-06T23:22:27.062Z,19.45
2019-02-06T23:27:36.958Z,23.13
2019-02-06T23:32:48.173Z,27.40
2019-02-06T23:37:56.536Z,26.27
2019-02-06T23:43:06.117Z,25.60
2019-02-06T23:48:16.837Z,21.23
2019-02-06T23:53:34.465Z,23.70
2019-02-06T23:58:46.264Z,27.53
